Time;durP1;ratioP1;P1;durP2;ratioP2;P2;SDS_P1;SDS_P2;PMS_P1;PMS_P2;Temp;Humidity;BMP_temperature;BMP_pressure;BME280_temperature;BME280_humidity;BME280_pressure;Samples;Min_cycle;Max_cycle;Signal;HPM_P1;HPM_P2
2024/02/01 00:01:03;;;;;;;7.82;3.25;;;5.80;99.90;;;;;;5109038;28;20027;-63
2024/02/01 00:03:30;;;;;;;3.63;2.25;;;5.80;99.90;;;;;;5090949;28;20020;-63
2024/02/01 00:05:55;;;;;;;5.03;2.55;;;5.80;99.90;;;;;;5109292;28;20031;-63
2024/02/01 00:08:21;;;;;;;7.05;2.92;;;5.90;99.90;;;;;;5103652;28;20031;-63
2024/02/01 00:10:46;;;;;;;3.53;2.13;;;5.90;99.90;;;;;;5109325;28;20517;-62
2024/02/01 00:13:12;;;;;;;6.22;2.53;;;5.90;99.90;;;;;;5110174;28;20046;-63
2024/02/01 00:15:38;;;;;;;6.80;3.00;;;5.90;99.90;;;;;;5108031;28;20065;-61
2024/02/01 00:18:04;;;;;;;6.15;2.63;;;5.90;99.90;;;;;;5091699;28;20065;-62
2024/02/01 00:20:29;;;;;;;9.50;2.70;;;5.90;99.90;;;;;;5109216;28;20019;-63
2024/02/01 00:22:55;;;;;;;5.07;2.70;;;5.90;99.90;;;;;;5110831;28;20027;-63
2024/02/01 00:25:20;;;;;;;7.13;2.95;;;6.00;99.90;;;;;;5108638;28;20035;-63
2024/02/01 00:27:46;;;;;;;6.95;3.00;;;6.00;99.90;;;;;;5102084;28;20042;-63
2024/02/01 00:30:12;;;;;;;7.25;2.83;;;6.10;99.90;;;;;;5110588;28;20058;-63
2024/02/01 00:32:37;;;;;;;7.43;2.75;;;6.20;99.90;;;;;;5103427;28;20110;-63
2024/02/01 00:35:04;;;;;;;6.68;3.15;;;6.20;99.90;;;;;;5109310;28;20016;-62
2024/02/01 00:37:30;;;;;;;6.47;2.67;;;6.20;99.90;;;;;;5107371;28;20027;-63
2024/02/01 00:39:55;;;;;;;5.72;2.38;;;6.20;99.90;;;;;;5105475;28;20031;-63
2024/02/01 00:42:21;;;;;;;4.60;2.53;;;6.20;99.90;;;;;;5106211;28;20024;-62
2024/02/01 00:44:46;;;;;;;5.22;2.88;;;6.30;99.90;;;;;;5100004;28;20040;-63
2024/02/01 00:47:12;;;;;;;6.22;3.45;;;6.20;99.90;;;;;;5108019;28;20023;-63
2024/02/01 00:49:37;;;;;;;4.88;2.35;;;6.20;99.90;;;;;;5103518;28;20039;-62
2024/02/01 00:52:03;;;;;;;7.05;2.42;;;6.30;99.90;;;;;;5101407;28;20023;-63
2024/02/01 00:54:30;;;;;;;3.45;2.60;;;6.20;99.90;;;;;;5102097;28;20028;-63
2024/02/01 00:56:55;;;;;;;7.50;2.85;;;6.30;99.90;;;;;;5093797;28;20462;-63
2024/02/01 00:59:21;;;;;;;6.15;3.13;;;6.30;99.90;;;;;;5099277;28;20110;-63
2024/02/01 01:01:46;;;;;;;8.98;3.03;;;6.30;99.90;;;;;;5099189;28;20031;-63
2024/02/01 01:04:15;;;;;;;4.15;3.00;;;6.30;99.90;;;;;;5101652;22;20077;-82
2024/02/01 01:06:42;;;;;;;11.10;3.45;;;6.40;99.90;;;;;;5071414;28;20028;-83
2024/02/01 01:09:08;;;;;;;5.30;2.95;;;6.40;99.90;;;;;;5066320;28;20031;-83
2024/02/01 01:11:34;;;;;;;5.95;3.33;;;6.30;99.90;;;;;;5069449;28;20100;-83
2024/02/01 01:14:00;;;;;;;7.75;2.90;;;6.30;99.90;;;;;;5083277;28;20032;-82
2024/02/01 01:16:28;;;;;;;8.40;3.00;;;6.30;99.90;;;;;;5078330;28;20046;-81
2024/02/01 01:18:54;;;;;;;5.90;2.90;;;6.30;99.90;;;;;;5063358;28;20024;-82
2024/02/01 01:21:20;;;;;;;5.45;3.45;;;6.30;99.90;;;;;;5062482;28;20115;-83
2024/02/01 01:23:45;;;;;;;5.95;2.95;;;6.30;99.90;;;;;;5064558;28;20395;-82
2024/02/01 01:26:11;;;;;;;7.82;2.30;;;6.30;99.90;;;;;;5069601;28;20050;-81
2024/02/01 01:28:37;;;;;;;5.50;3.08;;;6.30;99.90;;;;;;5083042;28;20028;-81
2024/02/01 01:31:03;;;;;;;5.35;2.55;;;6.30;99.90;;;;;;5065916;28;20480;-82
2024/02/01 01:33:29;;;;;;;4.88;2.88;;;6.30;99.90;;;;;;5076416;28;20020;-82
2024/02/01 01:35:55;;;;;;;8.10;3.30;;;6.40;99.90;;;;;;5068417;28;20116;-82
2024/02/01 01:38:21;;;;;;;7.38;2.90;;;6.40;99.90;;;;;;5065252;28;20489;-83
2024/02/01 01:40:48;;;;;;;7.78;3.10;;;6.50;99.90;;;;;;5063496;28;20059;-82
2024/02/01 01:43:13;;;;;;;11.15;3.70;;;6.50;99.90;;;;;;5066704;28;20023;-81
2024/02/01 01:45:39;;;;;;;13.70;4.22;;;6.70;99.90;;;;;;5065468;28;20025;-82
2024/02/01 01:48:05;;;;;;;10.45;4.22;;;6.80;99.90;;;;;;5066436;28;20055;-82
2024/02/01 01:50:31;;;;;;;13.57;4.93;;;6.90;99.90;;;;;;5055719;28;20079;-83
2024/02/01 01:52:58;;;;;;;13.82;4.88;;;6.90;99.90;;;;;;5076540;28;20024;-83
2024/02/01 01:55:26;;;;;;;13.75;4.82;;;7.10;99.90;;;;;;5068604;28;20020;-83
2024/02/01 01:57:52;;;;;;;8.55;4.93;;;7.10;99.90;;;;;;5074258;28;20099;-81
2024/02/01 02:00:18;;;;;;;11.65;4.78;;;7.20;99.90;;;;;;5066877;28;20115;-82
2024/02/01 02:02:44;;;;;;;12.93;5.78;;;7.30;99.90;;;;;;5071305;28;20028;-81
2024/02/01 02:05:10;;;;;;;15.43;6.03;;;7.40;99.90;;;;;;5073647;28;20048;-81
2024/02/01 02:07:39;;;;;;;9.57;5.45;;;7.40;99.90;;;;;;5074982;28;20039;-83
2024/02/01 02:10:05;;;;;;;11.57;5.68;;;7.40;99.90;;;;;;5062302;28;20112;-82
2024/02/01 02:12:31;;;;;;;15.93;5.45;;;7.40;99.90;;;;;;5065967;28;20026;-83
2024/02/01 02:15:01;;;;;;;14.88;6.10;;;7.40;99.90;;;;;;5067413;28;20028;-82
2024/02/01 02:17:27;;;;;;;14.70;5.78;;;7.40;99.90;;;;;;5084423;28;20108;-82
2024/02/01 02:20:02;;;;;;;15.80;6.00;;;7.50;99.90;;;;;;5073638;28;20056;-82
2024/02/01 02:22:29;;;;;;;10.32;5.95;;;7.50;99.90;;;;;;5067006;28;20118;-81
2024/02/01 02:24:56;;;;;;;11.30;5.85;;;7.50;99.90;;;;;;5082674;28;20034;-82
2024/02/01 02:27:21;;;;;;;11.20;5.22;;;7.50;99.90;;;;;;5065053;28;20082;-83
2024/02/01 02:29:47;;;;;;;16.08;5.95;;;7.50;99.90;;;;;;5086611;28;20040;-82
2024/02/01 02:32:14;;;;;;;10.75;6.55;;;7.50;99.90;;;;;;5071616;28;20028;-82
2024/02/01 02:34:40;;;;;;;12.52;6.00;;;7.50;99.90;;;;;;5064095;28;20603;-82
2024/02/01 02:37:08;;;;;;;14.68;6.07;;;7.50;99.90;;;;;;5082718;28;20492;-82
2024/02/01 02:39:37;;;;;;;10.10;5.28;;;7.40;99.90;;;;;;5064167;28;20033;-82
2024/02/01 02:42:04;;;;;;;11.05;5.18;;;7.50;99.90;;;;;;5068238;28;20035;-82
2024/02/01 02:44:29;;;;;;;13.60;5.60;;;7.50;99.90;;;;;;5064973;28;20043;-83
2024/02/01 02:46:55;;;;;;;21.63;6.68;;;7.50;99.90;;;;;;5063815;28;20016;-83
2024/02/01 02:49:21;;;;;;;15.18;6.25;;;7.50;99.90;;;;;;5082245;28;20039;-82
2024/02/01 02:51:47;;;;;;;13.15;6.32;;;7.50;99.90;;;;;;5089656;28;20159;-82
2024/02/01 02:54:12;;;;;;;15.60;6.35;;;7.50;99.90;;;;;;5072894;28;20476;-80
2024/02/01 02:56:38;;;;;;;20.35;7.22;;;7.50;99.90;;;;;;5054897;28;20032;-83
2024/02/01 02:59:04;;;;;;;16.20;6.45;;;7.50;99.90;;;;;;5069724;28;20027;-82
2024/02/01 03:01:30;;;;;;;12.40;6.00;;;7.50;99.90;;;;;;5075459;28;20028;-83
2024/02/01 03:03:55;;;;;;;15.40;5.97;;;7.50;99.90;;;;;;5070829;28;20119;-82
2024/02/01 03:06:21;;;;;;;10.18;5.70;;;7.50;99.90;;;;;;5064859;28;20040;-83
2024/02/01 03:08:47;;;;;;;14.27;6.03;;;7.50;99.90;;;;;;5069891;28;20032;-81
2024/02/01 03:11:13;;;;;;;16.38;6.22;;;7.50;99.90;;;;;;5068295;28;20032;-83
2024/02/01 03:13:45;;;;;;;10.80;5.22;;;7.50;99.90;;;;;;5063316;28;20476;-82
2024/02/01 03:16:20;;;;;;;11.77;5.60;;;7.60;99.90;;;;;;5082987;28;20065;-82
2024/02/01 03:18:47;;;;;;;8.63;5.07;;;7.60;99.90;;;;;;5068471;28;20272;-83
2024/02/01 03:21:16;;;;;;;9.43;4.78;;;7.50;99.90;;;;;;5068151;28;20063;-83
2024/02/01 03:23:44;;;;;;;11.52;5.50;;;7.50;99.90;;;;;;5063872;28;20035;-81
2024/02/01 03:26:10;;;;;;;12.38;5.40;;;7.50;99.90;;;;;;5081475;28;20084;-82
2024/02/01 03:28:47;;;;;;;9.68;5.05;;;7.60;99.90;;;;;;5069379;28;20092;-83
2024/02/01 03:31:12;;;;;;;13.10;5.75;;;7.60;99.90;;;;;;5061737;28;20031;-84
2024/02/01 03:33:39;;;;;;;10.68;5.47;;;7.50;99.90;;;;;;5062601;28;20020;-82
2024/02/01 03:36:11;;;;;;;9.60;5.53;;;7.50;99.90;;;;;;5083026;28;20032;-83
2024/02/01 03:38:40;;;;;;;15.07;5.45;;;7.60;99.90;;;;;;5063926;28;20051;-82
2024/02/01 03:41:06;;;;;;;9.15;5.65;;;7.60;99.90;;;;;;5085193;28;20032;-80
2024/02/01 03:43:32;;;;;;;9.90;5.65;;;7.50;99.90;;;;;;5072265;28;20573;-82
2024/02/01 03:45:58;;;;;;;10.65;6.28;;;7.60;99.90;;;;;;5061144;28;20028;-83
2024/02/01 03:48:24;;;;;;;17.50;6.03;;;7.60;99.90;;;;;;5082889;28;20024;-83
2024/02/01 03:50:50;;;;;;;11.50;6.00;;;7.50;99.90;;;;;;5063895;28;20036;-82
2024/02/01 03:53:17;;;;;;;10.65;5.70;;;7.60;99.90;;;;;;5065692;28;20025;-82
2024/02/01 03:55:45;;;;;;;11.60;5.60;;;7.60;99.90;;;;;;5086706;28;20016;-83
2024/02/01 03:58:17;;;;;;;10.80;5.47;;;7.60;99.90;;;;;;5067317;28;20149;-82
2024/02/01 04:00:44;;;;;;;10.55;4.68;;;7.60;99.90;;;;;;5063089;28;20317;-83
2024/02/01 04:03:14;;;;;;;7.95;4.78;;;7.60;99.90;;;;;;5067553;28;20035;-82
2024/02/01 04:05:40;;;;;;;12.50;5.10;;;7.60;99.90;;;;;;5057588;28;20040;-82
2024/02/01 04:08:07;;;;;;;11.27;4.18;;;7.60;99.90;;;;;;5063995;28;20028;-84
2024/02/01 04:10:37;;;;;;;13.63;5.70;;;7.60;99.90;;;;;;5065825;28;20068;-83
2024/02/01 04:13:07;;;;;;;8.57;5.28;;;7.60;99.90;;;;;;5066428;28;20032;-83
2024/02/01 04:15:34;;;;;;;7.43;4.22;;;7.60;99.90;;;;;;5062052;28;20040;-83
2024/02/01 04:18:02;;;;;;;10.38;5.30;;;7.60;99.90;;;;;;5082624;28;20094;-82
2024/02/01 04:20:29;;;;;;;10.43;4.65;;;7.60;99.90;;;;;;5072761;28;20307;-82
2024/02/01 04:22:55;;;;;;;8.25;5.28;;;7.60;99.90;;;;;;5073738;28;20063;-82
2024/02/01 04:25:23;;;;;;;12.48;5.68;;;7.70;99.90;;;;;;5062190;28;20400;-82
2024/02/01 04:27:52;;;;;;;10.70;5.38;;;7.70;99.90;;;;;;5068559;28;20038;-81
2024/02/01 04:30:19;;;;;;;8.30;5.65;;;7.70;99.90;;;;;;5062592;28;20031;-83
2024/02/01 04:32:48;;;;;;;8.27;5.90;;;7.70;99.90;;;;;;5084669;28;20017;-83
2024/02/01 04:35:17;;;;;;;15.25;6.30;;;7.70;99.90;;;;;;5063450;28;20783;-82
2024/02/01 04:37:43;;;;;;;11.60;6.30;;;7.70;99.90;;;;;;5069493;28;20051;-83
2024/02/01 04:40:11;;;;;;;15.48;6.57;;;7.70;99.90;;;;;;5065378;28;20573;-82
2024/02/01 04:42:37;;;;;;;10.75;7.45;;;7.70;99.90;;;;;;5063296;28;20154;-83
2024/02/01 04:45:04;;;;;;;13.68;8.18;;;7.70;99.90;;;;;;5067943;28;20031;-82
2024/02/01 04:47:37;;;;;;;12.30;8.02;;;7.70;99.90;;;;;;5062279;28;20020;-82
2024/02/01 04:50:04;;;;;;;11.77;7.20;;;7.70;99.90;;;;;;5064745;28;20027;-83
2024/02/01 04:52:31;;;;;;;16.33;9.10;;;7.70;99.90;;;;;;5064698;28;20412;-82
2024/02/01 04:54:59;;;;;;;14.75;8.25;;;7.70;99.90;;;;;;5064372;28;20049;-83
2024/02/01 04:57:25;;;;;;;12.60;8.57;;;7.70;99.90;;;;;;5042712;28;20048;-82
2024/02/01 04:59:51;;;;;;;13.77;8.18;;;7.70;99.90;;;;;;5061692;28;20036;-82
2024/02/01 05:02:17;;;;;;;12.35;8.38;;;7.70;99.90;;;;;;5062426;28;20036;-83
2024/02/01 05:04:46;;;;;;;13.70;9.18;;;7.70;99.90;;;;;;5067595;28;20489;-84
2024/02/01 05:07:11;;;;;;;13.70;8.43;;;7.70;99.90;;;;;;5061520;28;20032;-83
2024/02/01 05:09:39;;;;;;;13.82;7.85;;;7.70;99.90;;;;;;5066216;28;20509;-83
2024/02/01 05:12:06;;;;;;;11.85;7.75;;;7.70;99.90;;;;;;5066219;28;20055;-83
2024/02/01 05:14:32;;;;;;;14.27;7.35;;;7.70;99.90;;;;;;5067273;28;20024;-84
2024/02/01 05:16:58;;;;;;;9.73;6.22;;;7.70;99.90;;;;;;5068222;28;20024;-84
2024/02/01 05:19:27;;;;;;;13.48;7.38;;;7.70;99.90;;;;;;5072742;28;20108;-82
2024/02/01 05:21:54;;;;;;;11.25;6.97;;;7.70;99.90;;;;;;5068482;28;20454;-83
2024/02/01 05:24:24;;;;;;;11.40;7.90;;;7.70;99.90;;;;;;5072365;28;20052;-84
2024/02/01 05:26:52;;;;;;;9.48;6.63;;;7.70;99.90;;;;;;5070516;28;20028;-82
2024/02/01 05:29:17;;;;;;;10.73;7.28;;;7.60;99.90;;;;;;5072744;28;20028;-83
2024/02/01 05:31:47;;;;;;;13.23;8.18;;;7.70;99.90;;;;;;5070065;28;20499;-82
2024/02/01 05:34:17;;;;;;;11.90;8.50;;;7.70;99.90;;;;;;5071017;28;20043;-84
2024/02/01 05:36:45;;;;;;;15.50;9.27;;;7.70;99.90;;;;;;5065595;28;20044;-83
2024/02/01 05:39:24;;;;;;;13.93;9.57;;;7.70;99.90;;;;;;5075337;28;20036;-82
2024/02/01 05:41:54;;;;;;;16.02;10.55;;;7.70;99.90;;;;;;5076810;28;20500;-82
2024/02/01 05:44:21;;;;;;;16.60;11.15;;;7.70;99.90;;;;;;5072272;28;20025;-83
2024/02/01 05:46:48;;;;;;;17.00;11.45;;;7.70;99.90;;;;;;5069470;28;20119;-83
2024/02/01 05:49:18;;;;;;;20.48;11.95;;;7.70;99.90;;;;;;5072299;28;20025;-82
2024/02/01 05:51:45;;;;;;;17.23;10.82;;;7.80;99.90;;;;;;5070659;28;20040;-83
2024/02/01 05:54:11;;;;;;;15.82;10.55;;;7.80;99.90;;;;;;5074571;28;20021;-83
2024/02/01 05:56:37;;;;;;;19.77;10.50;;;7.80;99.90;;;;;;5078365;28;20020;-84
2024/02/01 05:59:02;;;;;;;18.77;10.95;;;7.80;99.90;;;;;;5075008;28;20025;-83
2024/02/01 06:01:30;;;;;;;13.52;10.15;;;7.80;99.90;;;;;;5075323;28;20067;-83
2024/02/01 06:03:56;;;;;;;16.27;10.55;;;7.90;99.90;;;;;;5074245;28;20095;-83
2024/02/01 06:06:22;;;;;;;19.85;10.82;;;7.80;99.90;;;;;;5086313;28;20055;-84
2024/02/01 06:08:47;;;;;;;17.20;11.20;;;7.90;99.90;;;;;;5072096;28;20116;-83
2024/02/01 06:11:13;;;;;;;17.65;11.52;;;7.90;99.90;;;;;;5067505;28;20031;-82
2024/02/01 06:13:42;;;;;;;16.80;11.75;;;7.90;99.90;;;;;;5069381;28;20051;-83
2024/02/01 06:16:11;;;;;;;23.70;13.13;;;7.90;99.90;;;;;;5066432;28;20029;-82
2024/02/01 06:18:37;;;;;;;26.63;12.95;;;7.90;99.90;;;;;;5071307;28;20081;-84
2024/02/01 06:21:02;;;;;;;20.23;13.13;;;7.90;99.90;;;;;;5088870;28;20103;-83
2024/02/01 06:23:28;;;;;;;25.27;12.68;;;7.90;99.90;;;;;;5074212;28;20028;-84
2024/02/01 06:25:54;;;;;;;22.63;14.43;;;8.00;99.90;;;;;;5069056;28;20392;-82
2024/02/01 06:28:22;;;;;;;24.33;14.90;;;8.00;99.90;;;;;;5071836;28;20033;-84
2024/02/01 06:30:48;;;;;;;29.00;14.35;;;8.00;99.90;;;;;;5088427;28;20313;-83
2024/02/01 06:33:14;;;;;;;28.13;14.82;;;8.00;99.90;;;;;;5072882;28;20617;-82
2024/02/01 06:35:42;;;;;;;28.17;15.93;;;8.00;99.90;;;;;;5086408;28;20452;-84
2024/02/01 06:38:22;;;;;;;27.33;16.00;;;8.00;99.90;;;;;;5070875;28;20111;-84
2024/02/01 06:41:06;;;;;;;27.45;16.83;;;8.00;99.90;;;;;;5075433;28;20028;-84
2024/02/01 06:43:51;;;;;;;32.00;17.02;;;8.00;99.90;;;;;;5075489;28;20035;-84
2024/02/01 06:46:22;;;;;;;28.27;16.10;;;8.00;99.90;;;;;;5087123;28;20035;-82
2024/02/01 06:49:01;;;;;;;27.50;16.48;;;8.00;99.90;;;;;;5072990;28;20027;-83
2024/02/01 06:51:32;;;;;;;29.42;16.92;;;8.00;99.90;;;;;;5068685;28;20027;-83
2024/02/01 06:54:05;;;;;;;32.00;19.50;;;8.10;99.90;;;;;;5065069;28;20688;-83
2024/02/01 06:56:52;;;;;;;33.03;17.90;;;8.00;99.90;;;;;;5066322;28;20578;-84
2024/02/01 06:59:33;;;;;;;32.25;18.63;;;8.00;99.90;;;;;;5068467;28;20051;-83
2024/02/01 07:02:14;;;;;;;35.75;17.20;;;8.10;99.90;;;;;;5076522;28;20500;-83
2024/02/01 07:04:50;;;;;;;24.98;14.93;;;8.00;99.90;;;;;;5073236;28;20104;-83
2024/02/01 07:07:29;;;;;;;26.48;13.93;;;8.00;99.90;;;;;;5069434;28;20541;-84
2024/02/01 07:10:05;;;;;;;28.15;16.23;;;8.00;99.90;;;;;;5073896;28;20039;-84
2024/02/01 07:12:53;;;;;;;27.60;14.75;;;8.00;99.90;;;;;;5084945;28;20025;-84
2024/02/01 07:15:43;;;;;;;29.02;13.95;;;7.90;99.90;;;;;;5074553;28;20020;-85
2024/02/01 07:18:30;;;;;;;31.17;13.25;;;7.90;99.90;;;;;;5087099;28;20032;-83
2024/02/01 07:20:56;;;;;;;22.52;12.93;;;7.90;99.90;;;;;;5082171;28;20028;-85
2024/02/01 07:25:48;;;;;;;24.23;11.38;;;7.90;99.90;;;;;;5088525;28;20063;-83
2024/02/01 07:58:49;;;;;;;16.13;8.90;;;7.00;99.90;;;;;;5085507;28;20067;-84
2024/02/01 08:01:18;;;;;;;20.10;9.55;;;7.00;99.90;;;;;;5071822;28;20051;-84
2024/02/01 08:09:14;;;;;;;20.08;7.57;;;7.20;99.90;;;;;;5089501;28;20057;-81
2024/02/01 08:11:42;;;;;;;24.20;8.60;;;7.40;99.90;;;;;;5069281;28;20492;-82
2024/02/01 08:14:09;;;;;;;22.52;8.02;;;7.50;99.90;;;;;;5085510;28;20025;-85
2024/02/01 08:16:35;;;;;;;21.23;7.05;;;7.60;99.90;;;;;;5088697;28;20043;-85
2024/02/01 08:19:01;;;;;;;15.02;5.88;;;7.70;99.90;;;;;;5070155;28;20054;-84
2024/02/01 08:21:32;;;;;;;15.00;6.88;;;7.70;99.90;;;;;;5065132;28;20044;-84
2024/02/01 08:23:57;;;;;;;12.07;5.57;;;7.70;99.90;;;;;;5077708;28;20048;-81
2024/02/01 08:26:23;;;;;;;9.40;5.18;;;7.70;99.90;;;;;;5073111;28;20047;-81
2024/02/01 08:28:50;;;;;;;12.05;5.43;;;7.60;99.90;;;;;;5073960;28;20119;-82
2024/02/01 08:31:17;;;;;;;17.08;5.47;;;7.50;99.90;;;;;;5069706;28;20086;-81
2024/02/01 08:33:44;;;;;;;8.73;5.20;;;7.40;99.90;;;;;;5089301;28;20509;-83
2024/02/01 08:36:17;;;;;;;20.48;6.15;;;7.30;99.90;;;;;;5083135;28;20044;-84
2024/02/01 08:38:43;;;;;;;21.00;5.60;;;7.20;99.90;;;;;;5072810;28;20020;-84
2024/02/01 08:41:11;;;;;;;10.80;5.35;;;7.00;99.90;;;;;;5089865;28;20047;-84
2024/02/01 08:43:40;;;;;;;11.27;5.22;;;6.90;99.90;;;;;;5087451;28;20028;-83
2024/02/01 08:46:06;;;;;;;11.50;4.15;;;6.90;99.90;;;;;;5078338;28;20040;-84
2024/02/01 08:48:31;;;;;;;10.55;3.25;;;6.80;99.90;;;;;;5086521;28;20464;-83
2024/02/01 08:50:58;;;;;;;15.60;3.55;;;6.80;99.90;;;;;;5075794;28;20360;-84
2024/02/01 08:53:23;;;;;;;14.38;2.88;;;6.70;99.90;;;;;;5079333;28;20035;-84
2024/02/01 08:55:52;;;;;;;24.02;4.13;;;6.70;99.90;;;;;;5076004;28;20035;-83
2024/02/01 08:58:19;;;;;;;11.52;3.25;;;6.70;99.90;;;;;;5083492;28;20031;-83
2024/02/01 09:00:44;;;;;;;22.95;4.47;;;6.60;99.90;;;;;;5074651;28;20119;-85
2024/02/01 09:03:21;;;;;;;16.42;3.20;;;6.60;99.90;;;;;;5075081;28;20576;-85
2024/02/01 09:05:51;;;;;;;44.63;6.13;;;6.60;99.90;;;;;;5079344;28;20036;-84
2024/02/01 09:08:35;;;;;;;34.47;5.72;;;6.60;99.90;;;;;;5065548;28;20008;-82
2024/02/01 09:13:37;;;;;;;16.83;3.03;;;6.60;99.90;;;;;;5072018;28;20107;-83
2024/02/01 09:16:03;;;;;;;18.65;3.42;;;6.60;99.90;;;;;;5053485;28;20043;-83
2024/02/01 09:18:29;;;;;;;22.92;2.83;;;6.60;99.90;;;;;;5071115;28;20025;-83
2024/02/01 09:20:55;;;;;;;15.48;2.35;;;6.50;99.90;;;;;;5055776;28;20398;-82
2024/02/01 09:23:24;;;;;;;11.93;2.63;;;6.50;99.90;;;;;;5072778;28;20027;-83
2024/02/01 09:25:50;;;;;;;17.23;4.40;;;6.50;99.90;;;;;;5054431;28;20031;-83
2024/02/01 09:28:16;;;;;;;16.08;5.63;;;6.50;99.90;;;;;;5050646;28;20033;-83
2024/02/01 09:30:45;;;;;;;25.50;6.28;;;6.50;99.90;;;;;;5053266;28;20132;-82
2024/02/01 09:33:18;;;;;;;30.27;5.07;;;6.60;99.90;;;;;;5055105;28;20389;-83
2024/02/01 09:35:45;;;;;;;;;;;6.60;99.90;;;;;;5055836;28;20037;-82
2024/02/01 09:38:11;;;;;;;23.15;4.07;;;6.70;99.90;;;;;;5055041;28;19910;-83
2024/02/01 09:40:41;;;;;;;38.05;4.93;;;6.70;99.90;;;;;;5055278;28;20127;-82
2024/02/01 09:43:17;;;;;;;17.23;3.55;;;6.80;99.90;;;;;;5050745;28;20025;-82
2024/02/01 09:45:44;;;;;;;23.52;4.15;;;6.80;99.90;;;;;;5054395;28;20032;-82
2024/02/01 09:48:16;;;;;;;22.20;4.63;;;6.80;99.90;;;;;;5046890;28;20395;-82
2024/02/01 09:50:53;;;;;;;13.50;3.40;;;6.90;99.90;;;;;;5062211;28;20037;-83
2024/02/01 09:53:23;;;;;;;19.88;2.92;;;7.10;99.90;;;;;;5051832;28;20864;-80
2024/02/01 09:55:51;;;;;;;26.33;3.47;;;7.40;99.90;;;;;;5049490;28;20134;-81
2024/02/01 09:58:18;;;;;;;27.00;4.82;;;7.60;99.90;;;;;;5073168;28;20021;-82
2024/02/01 10:00:44;;;;;;;26.38;2.92;;;7.90;99.90;;;;;;5023991;28;20041;-81
2024/02/01 10:03:13;;;;;;;27.65;3.60;;;7.90;99.90;;;;;;5054746;28;20025;-81
2024/02/01 10:05:43;;;;;;;24.60;3.80;;;7.90;99.90;;;;;;5076210;28;20487;-81
2024/02/01 10:08:14;;;;;;;29.20;3.53;;;8.00;99.90;;;;;;5063712;28;20060;-82
2024/02/01 10:10:45;;;;;;;25.95;4.20;;;8.20;99.90;;;;;;5064295;28;20067;-81
2024/02/01 10:13:13;;;;;;;22.00;4.03;;;8.20;99.90;;;;;;5063934;28;20021;-81
2024/02/01 10:15:51;;;;;;;32.67;4.57;;;8.30;99.90;;;;;;5066434;28;20023;-81
2024/02/01 10:18:21;;;;;;;23.98;4.47;;;8.10;99.90;;;;;;5085606;28;20029;-80
2024/02/01 10:20:52;;;;;;;29.40;4.18;;;7.90;99.90;;;;;;5081646;28;20032;-81
2024/02/01 10:23:22;;;;;;;37.20;4.53;;;7.70;99.90;;;;;;5069476;28;20032;-81
2024/02/01 10:25:53;;;;;;;19.40;2.58;;;7.60;99.90;;;;;;5083462;28;20055;-80
2024/02/01 10:28:25;;;;;;;20.80;2.80;;;7.50;99.90;;;;;;5064009;28;20031;-80
2024/02/01 10:30:52;;;;;;;22.92;3.33;;;7.50;99.90;;;;;;5060717;28;20484;-80
2024/02/01 10:33:25;;;;;;;18.85;3.42;;;7.50;99.90;;;;;;5086855;28;20150;-80
2024/02/01 10:35:53;;;;;;;20.55;3.70;;;7.60;99.90;;;;;;5065508;28;20024;-80
2024/02/01 10:38:26;;;;;;;25.08;3.75;;;7.70;99.90;;;;;;5065469;28;20484;-81
2024/02/01 10:40:58;;;;;;;22.45;2.90;;;7.90;99.90;;;;;;5061679;28;20036;-81
2024/02/01 10:43:29;;;;;;;22.80;3.95;;;8.10;99.90;;;;;;5064509;28;20028;-81
2024/02/01 10:46:07;;;;;;;15.52;4.00;;;8.10;99.90;;;;;;5083160;28;20114;-81
2024/02/01 10:49:10;;;;;;;19.88;3.47;;;8.00;99.90;;;;;;5074696;28;20024;-80
2024/02/01 10:51:36;;;;;;;16.70;2.83;;;7.80;99.90;;;;;;5065960;28;20048;-81
2024/02/01 10:54:04;;;;;;;24.90;2.88;;;7.80;99.90;;;;;;5065612;28;20047;-80
2024/02/01 10:56:30;;;;;;;16.90;3.78;;;7.80;99.90;;;;;;5075168;28;20036;-82
2024/02/01 10:58:59;;;;;;;18.73;2.47;;;8.10;99.90;;;;;;5068716;28;20085;-81
2024/02/01 11:01:28;;;;;;;28.17;3.72;;;8.20;99.90;;;;;;5046244;28;20032;-81
2024/02/01 11:03:56;;;;;;;25.42;3.17;;;8.20;99.90;;;;;;5081376;28;20035;-81
2024/02/01 11:06:25;;;;;;;22.90;3.15;;;8.30;99.90;;;;;;5068398;28;20500;-81
2024/02/01 11:08:53;;;;;;;15.57;2.85;;;8.50;99.90;;;;;;5080691;28;20036;-82
2024/02/01 11:11:23;;;;;;;19.27;3.35;;;8.40;99.90;;;;;;5063352;28;20017;-81
2024/02/01 11:14:11;;;;;;;19.42;2.85;;;8.50;99.90;;;;;;5062072;28;20024;-81
2024/02/01 11:16:49;;;;;;;33.92;3.30;;;8.50;99.90;;;;;;5069605;28;20027;-81
2024/02/01 11:19:34;;;;;;;42.20;4.55;;;8.70;99.90;;;;;;5070129;28;20024;-81
2024/02/01 11:22:03;;;;;;;16.83;2.47;;;8.90;99.90;;;;;;5062319;28;20052;-82
2024/02/01 11:24:30;;;;;;;20.70;2.95;;;9.00;99.90;;;;;;5062719;28;20663;-81
2024/02/01 11:27:10;;;;;;;30.70;3.58;;;9.00;99.90;;;;;;5078508;28;20029;-81
2024/02/01 11:29:38;;;;;;;20.80;2.95;;;8.80;99.90;;;;;;5062162;28;20028;-81
2024/02/01 11:32:05;;;;;;;14.18;2.50;;;8.80;99.90;;;;;;5063840;28;20476;-80
2024/02/01 11:34:35;;;;;;;23.95;3.17;;;8.70;99.90;;;;;;5081142;28;20135;-79
2024/02/01 11:37:05;;;;;;;12.63;2.05;;;8.60;99.90;;;;;;5069209;28;20016;-81
2024/02/01 11:39:31;;;;;;;23.67;2.60;;;8.70;99.90;;;;;;5086424;28;20027;-80
2024/02/01 11:41:57;;;;;;;20.08;3.05;;;8.60;99.90;;;;;;5066466;28;20040;-81
2024/02/01 11:44:23;;;;;;;13.23;2.92;;;8.70;99.90;;;;;;5070490;28;20028;-81
2024/02/01 11:46:53;;;;;;;14.70;2.38;;;8.80;99.90;;;;;;5077067;28;20029;-81
2024/02/01 11:49:25;;;;;;;7.57;1.92;;;8.70;99.90;;;;;;5061606;28;20024;-82
2024/02/01 11:52:13;;;;;;;15.95;2.90;;;8.70;99.90;;;;;;5071104;28;20028;-81
2024/02/01 11:54:49;;;;;;;11.57;1.77;;;8.50;99.90;;;;;;5070433;28;20483;-81
2024/02/01 11:57:17;;;;;;;15.02;2.40;;;8.40;99.90;;;;;;5077476;28;20601;-80
2024/02/01 11:59:46;;;;;;;20.70;3.45;;;8.20;99.90;;;;;;5086487;28;20032;-81
2024/02/01 12:02:13;;;;;;;13.43;3.15;;;8.00;99.90;;;;;;5066713;28;20508;-81
2024/02/01 12:04:41;;;;;;;19.70;2.83;;;7.90;99.90;;;;;;5064422;28;20032;-81
2024/02/01 12:07:08;;;;;;;20.02;2.67;;;7.90;99.90;;;;;;5066144;28;20024;-81
2024/02/01 12:09:38;;;;;;;13.63;2.58;;;7.90;99.90;;;;;;5066092;28;20031;-80
2024/02/01 12:12:04;;;;;;;12.43;2.85;;;7.90;99.90;;;;;;5087054;28;20062;-81
2024/02/01 12:14:32;;;;;;;13.13;2.30;;;7.90;99.90;;;;;;5084801;28;20048;-82
2024/02/01 12:17:04;;;;;;;13.45;1.95;;;7.80;99.90;;;;;;5077522;28;20052;-81
2024/02/01 12:19:37;;;;;;;17.83;2.83;;;7.70;99.90;;;;;;5065411;28;20029;-81
2024/02/01 12:22:13;;;;;;;27.85;4.05;;;7.70;99.90;;;;;;5076167;28;20036;-80
2024/02/01 12:24:42;;;;;;;13.32;2.22;;;7.70;99.90;;;;;;5070458;28;20051;-81
2024/02/01 12:27:08;;;;;;;18.45;3.25;;;7.70;99.90;;;;;;5061165;28;20035;-81
2024/02/01 12:29:34;;;;;;;13.95;2.60;;;7.80;99.90;;;;;;5068071;28;20028;-80
2024/02/01 12:32:01;;;;;;;17.05;3.50;;;7.70;99.90;;;;;;5067861;28;20077;-81
2024/02/01 12:34:27;;;;;;;23.30;2.45;;;7.70;99.90;;;;;;5065280;28;20427;-81
2024/02/01 12:36:53;;;;;;;20.25;2.70;;;7.80;99.90;;;;;;5066584;28;20078;-81
2024/02/01 12:39:19;;;;;;;17.70;3.53;;;7.90;99.90;;;;;;5066803;28;20480;-81
2024/02/01 12:41:45;;;;;;;17.95;3.67;;;7.90;99.90;;;;;;5064782;28;20049;-81
2024/02/01 12:44:13;;;;;;;16.02;3.28;;;8.00;99.90;;;;;;5067293;28;20028;-82
2024/02/01 12:46:42;;;;;;;20.33;2.20;;;8.00;99.90;;;;;;5065569;28;20051;-81
2024/02/01 12:49:12;;;;;;;13.27;2.83;;;8.10;99.90;;;;;;5064324;28;20020;-82
2024/02/01 12:51:42;;;;;;;15.30;2.17;;;8.30;99.90;;;;;;5057619;28;20048;-81
2024/02/01 12:54:09;;;;;;;8.98;2.25;;;8.50;99.90;;;;;;5062820;28;20025;-81
2024/02/01 12:56:36;;;;;;;21.75;4.60;;;8.50;99.90;;;;;;5085451;28;20020;-81
2024/02/01 12:59:04;;;;;;;21.08;3.58;;;8.50;99.90;;;;;;5075806;28;20038;-80
2024/02/01 13:01:33;;;;;;;25.60;2.80;;;8.60;99.90;;;;;;5056815;28;20040;-80
2024/02/01 13:04:02;;;;;;;9.40;2.38;;;8.70;99.90;;;;;;5062165;28;20085;-80
2024/02/01 13:06:29;;;;;;;17.35;2.45;;;8.80;99.90;;;;;;5059329;28;20028;-80
2024/02/01 13:08:54;;;;;;;16.85;2.60;;;8.70;99.90;;;;;;5067066;28;20424;-81
2024/02/01 13:11:25;;;;;;;19.42;2.53;;;8.60;99.90;;;;;;5059482;28;20043;-81
2024/02/01 13:14:00;;;;;;;22.92;2.67;;;8.50;99.90;;;;;;5064380;28;20028;-81
2024/02/01 13:16:27;;;;;;;17.88;2.58;;;8.40;99.90;;;;;;5066255;28;20761;-81
2024/02/01 13:18:55;;;;;;;14.70;1.80;;;8.40;99.90;;;;;;5065395;28;20032;-81
2024/02/01 13:21:24;;;;;;;15.82;2.50;;;8.40;99.90;;;;;;5073889;28;20039;-80
2024/02/01 13:23:51;;;;;;;17.25;3.35;;;8.40;99.90;;;;;;5072097;28;20035;-81
2024/02/01 13:26:17;;;;;;;15.02;2.88;;;8.50;99.90;;;;;;5062452;28;20025;-80
2024/02/01 13:28:43;;;;;;;10.93;2.03;;;8.40;99.90;;;;;;5059081;28;20043;-81
2024/02/01 13:31:09;;;;;;;15.85;2.53;;;8.40;99.90;;;;;;5061667;28;20096;-81
2024/02/01 13:33:35;;;;;;;15.40;2.17;;;8.20;99.90;;;;;;5055830;28;20488;-81
2024/02/01 13:36:08;;;;;;;14.57;2.63;;;8.10;99.90;;;;;;5069804;28;20032;-81